New Mines, Pennsylvania
Current Conditions -  °F | °C
As of 4:58 AM on Friday 19 Dec 2014 (Local Time) from KMUI Reporting Station
Overcast Overcast  
Wind Chill: 27°   Ceiling: 2600
Heat Index: 34°   Visibility: 10mi
Dew Point: 24°   Wind: 8mph
Humidity: 67%   Direction: 270°W
Pressure: 30.04"   Gusts: NA
Location:  40.6756°N, 76.3278°W
Report Text: KMUI 190958Z AUTO 27007KT 10SM BKN026 OVC032 01/M04 A3004 RMK AO2 BKN V OVC SLP180 T00111045
Loading
Personal Weather Stations






























Interactive Weather Map New forecast layout! Learn more

10-Day Weather Forecast

Advertisements
Track Severe Weather on mobile